Time;durP1;ratioP1;P1;durP2;ratioP2;P2;SDS_P1;SDS_P2;PMS_P1;PMS_P2;Temp;Humidity;BMP_temperature;BMP_pressure;BME280_temperature;BME280_humidity;BME280_pressure;Samples;Min_cycle;Max_cycle;Signal;HPM_P1;HPM_P2
2021/12/24 00:07:22;;;;;;;52.42;20.40;;;;;;;;;;5302782;23;20044;-83
2021/12/24 00:09:50;;;;;;;61.05;22.25;;;;;;;;;;4904646;29;20025;-84
2021/12/24 00:14:57;;;;;;;60.63;22.52;;;;;;;;;;5461791;23;20061;-84
2021/12/24 00:17:32;;;;;;;64.60;23.73;;;;;;;;;;4904509;29;20088;-83
2021/12/24 00:43:37;;;;;;;67.72;22.45;;;;;;;;;;5725209;23;20036;-84
2021/12/24 01:25:09;;;;;;;54.83;19.73;;;;;;;;;;5978838;23;20019;-82
2021/12/24 02:06:31;;;;;;;31.92;15.05;;;;;;;;;;5801827;23;21437;-84
2021/12/24 02:29:48;;;;;;;38.45;15.63;;;;;;;;;;4900022;29;20032;-83
2021/12/24 02:45:11;;;;;;;30.02;14.82;;;;;;;;;;5685118;23;20037;-84
2021/12/24 03:05:43;;;;;;;35.38;17.52;;;;;;;;;;5384828;23;20029;-85
2021/12/24 09:45:32;;;;;;;6.03;3.00;;;;;;;;;;5205935;23;20052;-84
2021/12/24 09:48:03;;;;;;;4.90;3.03;;;;;;;;;;4884838;29;20036;-84
2021/12/24 09:50:30;;;;;;;4.68;2.83;;;;;;;;;;4902199;29;20013;-84
2021/12/24 09:52:59;;;;;;;5.68;2.80;;;;;;;;;;4902960;29;20020;-83
2021/12/24 09:58:04;;;;;;;6.07;2.85;;;;;;;;;;5441585;23;20033;-82
2021/12/24 10:05:46;;;;;;;7.50;2.47;;;;;;;;;;5280890;23;20056;-84
2021/12/24 10:08:11;;;;;;;5.93;2.55;;;;;;;;;;4902513;29;20016;-84
2021/12/24 10:10:42;;;;;;;5.63;2.67;;;;;;;;;;4903061;29;20034;-83
2021/12/24 10:18:54;;;;;;;9.23;3.10;;;;;;;;;;4969127;23;20320;-82
2021/12/24 10:21:24;;;;;;;7.47;3.03;;;;;;;;;;4887317;29;20045;-84
2021/12/24 10:23:52;;;;;;;5.88;2.45;;;;;;;;;;4886333;29;20009;-84
2021/12/24 10:31:34;;;;;;;5.45;2.47;;;;;;;;;;5923775;23;20015;-83
2021/12/24 10:34:03;;;;;;;5.10;2.70;;;;;;;;;;4887605;29;20084;-83
2021/12/24 10:36:30;;;;;;;4.43;2.28;;;;;;;;;;4886717;29;20013;-83
2021/12/24 10:38:56;;;;;;;3.90;2.50;;;;;;;;;;4885966;29;20093;-82
2021/12/24 10:41:24;;;;;;;8.27;3.58;;;;;;;;;;4884280;29;20018;-83
2021/12/24 10:43:49;;;;;;;4.13;2.42;;;;;;;;;;4883720;29;20021;-81
2021/12/24 10:46:19;;;;;;;6.03;3.15;;;;;;;;;;4875905;29;20037;-81
2021/12/24 10:49:03;;;;;;;4.85;2.67;;;;;;;;;;4878095;29;20026;-81
2021/12/24 10:54:13;;;;;;;5.68;2.83;;;;;;;;;;4879090;29;20054;-81
2021/12/24 10:56:41;;;;;;;5.15;2.90;;;;;;;;;;4881988;29;20025;-81
2021/12/24 10:59:06;;;;;;;4.90;2.75;;;;;;;;;;4878521;29;20022;-81
2021/12/24 11:01:32;;;;;;;6.47;2.70;;;;;;;;;;4877482;29;20109;-81
2021/12/24 11:03:57;;;;;;;6.30;3.10;;;;;;;;;;4876602;29;20050;-81
2021/12/24 11:06:28;;;;;;;8.85;3.40;;;;;;;;;;4878555;29;20021;-80
2021/12/24 11:08:54;;;;;;;7.78;3.15;;;;;;;;;;4877510;29;20025;-81
2021/12/24 11:11:20;;;;;;;6.28;3.13;;;;;;;;;;4878177;29;20054;-80
2021/12/24 11:13:47;;;;;;;7.18;3.33;;;;;;;;;;4881229;29;20070;-80
2021/12/24 11:16:22;;;;;;;7.13;3.58;;;;;;;;;;4882129;29;20037;-81
2021/12/24 11:18:55;;;;;;;5.20;2.53;;;;;;;;;;4882285;29;20063;-80
2021/12/24 11:21:22;;;;;;;10.50;3.22;;;;;;;;;;4875028;29;20032;-80
2021/12/24 11:23:48;;;;;;;7.15;3.35;;;;;;;;;;4882145;29;20029;-80
2021/12/24 11:26:23;;;;;;;8.15;3.20;;;;;;;;;;4880111;29;20089;-80
2021/12/24 11:28:48;;;;;;;4.70;3.00;;;;;;;;;;4881275;29;20021;-82
2021/12/24 11:31:19;;;;;;;6.20;3.70;;;;;;;;;;4883230;29;20034;-81
2021/12/24 11:33:45;;;;;;;7.30;3.92;;;;;;;;;;4875667;29;20044;-80
2021/12/24 11:36:12;;;;;;;7.97;3.53;;;;;;;;;;4869586;29;20017;-80
2021/12/24 11:38:39;;;;;;;5.70;3.20;;;;;;;;;;4874548;29;20026;-81
2021/12/24 11:41:06;;;;;;;7.72;3.58;;;;;;;;;;4873034;29;20036;-79
2021/12/24 11:43:33;;;;;;;5.63;3.20;;;;;;;;;;4873052;29;20029;-80
2021/12/24 11:45:59;;;;;;;6.03;2.97;;;;;;;;;;4872943;29;20374;-80
2021/12/24 11:48:27;;;;;;;5.47;2.80;;;;;;;;;;4871819;29;20032;-81
2021/12/24 11:50:53;;;;;;;5.75;2.78;;;;;;;;;;4875448;29;20035;-81
2021/12/24 11:53:19;;;;;;;5.30;2.67;;;;;;;;;;4876947;29;20060;-81
2021/12/24 11:55:49;;;;;;;5.95;2.97;;;;;;;;;;4873180;29;20025;-81
2021/12/24 11:58:20;;;;;;;4.05;2.38;;;;;;;;;;4877970;29;20029;-81
2021/12/24 12:00:50;;;;;;;6.75;3.03;;;;;;;;;;4874185;29;20029;-80
2021/12/24 12:03:32;;;;;;;4.10;2.22;;;;;;;;;;4872486;29;20117;-81
2021/12/24 12:05:58;;;;;;;6.53;3.00;;;;;;;;;;4874315;29;20029;-81
2021/12/24 12:08:24;;;;;;;7.65;2.72;;;;;;;;;;4873993;29;20028;-82
2021/12/24 12:10:56;;;;;;;8.07;2.45;;;;;;;;;;4878763;29;20029;-81
2021/12/24 12:13:42;;;;;;;5.88;2.40;;;;;;;;;;4879246;29;20022;-80
2021/12/24 12:16:12;;;;;;;5.57;2.90;;;;;;;;;;4872274;29;20029;-81
2021/12/24 12:18:49;;;;;;;6.38;2.75;;;;;;;;;;4878822;29;20033;-81
2021/12/24 12:21:20;;;;;;;6.78;3.03;;;;;;;;;;4872722;29;20025;-80
2021/12/24 12:24:03;;;;;;;7.25;2.88;;;;;;;;;;4870605;29;20017;-81
2021/12/24 12:26:41;;;;;;;8.60;3.20;;;;;;;;;;4870689;29;20021;-81
2021/12/24 12:29:25;;;;;;;7.80;3.00;;;;;;;;;;4868432;29;20014;-80
2021/12/24 12:31:53;;;;;;;5.28;2.55;;;;;;;;;;4867784;29;20717;-82
2021/12/24 12:34:36;;;;;;;6.78;3.05;;;;;;;;;;4868237;29;20033;-80
2021/12/24 12:37:17;;;;;;;7.45;3.00;;;;;;;;;;4868575;29;20090;-80
2021/12/24 12:39:46;;;;;;;7.28;2.95;;;;;;;;;;4869317;29;20074;-80
2021/12/24 12:42:14;;;;;;;5.35;2.40;;;;;;;;;;4870041;29;20029;-81
2021/12/24 12:44:41;;;;;;;8.95;3.80;;;;;;;;;;4869895;29;20104;-80
2021/12/24 12:47:12;;;;;;;6.10;2.75;;;;;;;;;;4871321;29;20018;-81
2021/12/24 12:49:37;;;;;;;7.18;2.85;;;;;;;;;;4873486;29;20139;-79
2021/12/24 12:52:06;;;;;;;6.88;2.88;;;;;;;;;;4872653;29;20021;-80
2021/12/24 12:54:38;;;;;;;5.28;3.03;;;;;;;;;;4870135;29;20031;-80
2021/12/24 12:57:10;;;;;;;6.25;3.05;;;;;;;;;;4868829;29;20078;-80
2021/12/24 12:59:36;;;;;;;9.63;3.40;;;;;;;;;;4868280;29;20029;-81
2021/12/24 13:02:01;;;;;;;9.80;3.53;;;;;;;;;;4868175;29;20021;-80
2021/12/24 13:04:26;;;;;;;6.55;2.58;;;;;;;;;;4869172;29;20017;-80
2021/12/24 13:06:53;;;;;;;16.85;3.78;;;;;;;;;;4868341;29;20031;-80
2021/12/24 13:09:23;;;;;;;8.43;3.55;;;;;;;;;;4869352;29;20050;-80
2021/12/24 13:11:53;;;;;;;8.10;3.38;;;;;;;;;;4869202;29;20028;-82
2021/12/24 13:14:18;;;;;;;6.90;2.90;;;;;;;;;;4869390;29;20017;-81
2021/12/24 13:16:52;;;;;;;6.63;3.40;;;;;;;;;;4866999;29;20094;-80
2021/12/24 13:24:39;;;;;;;6.70;3.40;;;;;;;;;;4870297;29;20036;-80
2021/12/24 13:27:04;;;;;;;6.15;3.03;;;;;;;;;;4870222;29;20389;-80
2021/12/24 13:29:29;;;;;;;6.25;3.03;;;;;;;;;;4870394;29;20028;-80
2021/12/24 13:31:55;;;;;;;8.07;2.63;;;;;;;;;;4867771;29;20021;-81
2021/12/24 13:34:21;;;;;;;9.02;3.88;;;;;;;;;;4870764;29;20033;-81
2021/12/24 13:36:46;;;;;;;6.30;2.95;;;;;;;;;;4870875;29;20028;-80
2021/12/24 13:39:13;;;;;;;8.68;3.80;;;;;;;;;;4869090;29;20049;-81
2021/12/24 13:41:39;;;;;;;6.75;3.70;;;;;;;;;;4868375;29;20034;-81
2021/12/24 13:44:05;;;;;;;5.85;2.90;;;;;;;;;;4870534;29;20024;-80
2021/12/24 13:46:33;;;;;;;4.75;2.53;;;;;;;;;;4867456;29;20070;-80
2021/12/24 13:56:43;;;;;;;10.88;3.58;;;;;;;;;;4873560;29;20048;-81
2021/12/24 13:59:09;;;;;;;10.60;2.80;;;;;;;;;;4872421;29;20032;-81
2021/12/24 14:01:34;;;;;;;10.55;3.50;;;;;;;;;;4873006;29;20081;-80
2021/12/24 14:04:00;;;;;;;5.45;2.90;;;;;;;;;;4874711;29;20108;-80
2021/12/24 14:06:33;;;;;;;7.68;3.22;;;;;;;;;;4875996;29;20029;-80
2021/12/24 14:09:08;;;;;;;7.85;3.30;;;;;;;;;;4876095;29;20017;-80
2021/12/24 14:11:36;;;;;;;8.23;3.53;;;;;;;;;;4877143;29;20029;-80
2021/12/24 14:14:06;;;;;;;8.25;3.75;;;;;;;;;;4877627;29;20041;-79
2021/12/24 14:19:18;;;;;;;8.13;3.38;;;;;;;;;;4870256;29;20160;-81
2021/12/24 14:21:45;;;;;;;8.18;3.55;;;;;;;;;;4875678;29;20041;-81
2021/12/24 14:24:11;;;;;;;5.90;2.95;;;;;;;;;;4877595;29;20054;-81
2021/12/24 14:26:37;;;;;;;11.55;3.85;;;;;;;;;;4877546;29;20026;-81
2021/12/24 14:29:06;;;;;;;7.50;3.83;;;;;;;;;;4873576;29;20025;-80
2021/12/24 14:31:32;;;;;;;;;;;;;;;;;;4875195;29;20033;-81
2021/12/24 14:33:57;;;;;;;11.05;3.88;;;;;;;;;;4874041;29;19916;-80
2021/12/24 14:36:22;;;;;;;8.57;4.18;;;;;;;;;;4875093;29;20264;-80
2021/12/24 14:38:47;;;;;;;9.82;3.78;;;;;;;;;;4871276;29;20030;-80
2021/12/24 14:41:17;;;;;;;9.50;4.28;;;;;;;;;;4872506;29;20044;-81
2021/12/24 14:43:42;;;;;;;8.63;3.88;;;;;;;;;;4876477;29;20024;-82
2021/12/24 14:46:08;;;;;;;13.88;3.63;;;;;;;;;;4875473;29;20026;-81
2021/12/24 14:48:35;;;;;;;9.98;3.50;;;;;;;;;;4878409;29;20053;-81
2021/12/24 14:51:04;;;;;;;9.57;4.32;;;;;;;;;;4875723;29;20025;-79
2021/12/24 14:53:30;;;;;;;13.63;4.75;;;;;;;;;;4877624;29;20017;-81
2021/12/24 14:56:04;;;;;;;7.30;4.38;;;;;;;;;;4879894;29;20338;-81
2021/12/24 14:58:38;;;;;;;10.00;4.82;;;;;;;;;;4881966;29;20022;-81
2021/12/24 15:01:05;;;;;;;13.98;4.72;;;;;;;;;;4877834;29;20096;-81
2021/12/24 15:03:32;;;;;;;11.45;4.53;;;;;;;;;;4878405;29;20022;-81
2021/12/24 15:05:58;;;;;;;11.10;5.10;;;;;;;;;;4879499;29;20039;-81
2021/12/24 15:08:23;;;;;;;14.20;5.72;;;;;;;;;;4877697;29;20013;-81
2021/12/24 15:10:59;;;;;;;10.43;5.03;;;;;;;;;;4879713;29;20029;-81
2021/12/24 15:13:26;;;;;;;10.60;4.28;;;;;;;;;;4878061;29;20026;-80
2021/12/24 15:15:53;;;;;;;9.82;4.30;;;;;;;;;;4876907;29;20077;-83
2021/12/24 15:18:18;;;;;;;10.70;4.10;;;;;;;;;;4873856;29;20029;-80
2021/12/24 15:20:43;;;;;;;8.40;4.55;;;;;;;;;;4873245;29;20120;-80
2021/12/24 15:23:12;;;;;;;10.80;4.65;;;;;;;;;;4872049;29;20499;-80
2021/12/24 15:25:37;;;;;;;9.50;4.00;;;;;;;;;;4870853;29;20029;-82
2021/12/24 15:28:08;;;;;;;11.18;4.78;;;;;;;;;;4874967;29;20570;-80
2021/12/24 15:30:34;;;;;;;14.95;4.28;;;;;;;;;;4872407;29;20027;-81
2021/12/24 15:32:59;;;;;;;10.40;2.13;;;;;;;;;;4874042;29;20482;-81
2021/12/24 15:35:24;;;;;;;6.15;2.08;;;;;;;;;;4871895;29;20055;-81
2021/12/24 15:37:50;;;;;;;4.25;1.70;;;;;;;;;;4869171;29;20064;-80
2021/12/24 15:40:15;;;;;;;3.33;1.10;;;;;;;;;;4869389;29;20022;-81
2021/12/24 15:42:40;;;;;;;2.47;0.70;;;;;;;;;;4869274;29;20104;-80
2021/12/24 15:45:06;;;;;;;2.10;0.68;;;;;;;;;;4869428;29;20089;-81
2021/12/24 15:47:31;;;;;;;2.95;0.77;;;;;;;;;;4867652;29;20033;-79
2021/12/24 15:49:56;;;;;;;2.15;0.90;;;;;;;;;;4867906;29;20022;-81
2021/12/24 15:52:21;;;;;;;1.20;0.68;;;;;;;;;;4864473;29;20029;-78
2021/12/24 15:54:47;;;;;;;3.33;1.00;;;;;;;;;;4865811;29;20089;-80
2021/12/24 15:57:12;;;;;;;1.23;0.65;;;;;;;;;;4866021;29;20036;-81
2021/12/24 15:59:37;;;;;;;3.35;1.00;;;;;;;;;;4865349;29;20393;-80
2021/12/24 16:02:03;;;;;;;1.55;0.60;;;;;;;;;;4866964;29;20081;-80
2021/12/24 16:04:29;;;;;;;3.25;0.90;;;;;;;;;;4864749;29;20025;-79
2021/12/24 16:06:54;;;;;;;1.42;0.77;;;;;;;;;;4865264;29;20032;-80
2021/12/24 16:09:20;;;;;;;1.67;0.80;;;;;;;;;;4863646;29;20549;-80
2021/12/24 16:11:46;;;;;;;1.65;0.70;;;;;;;;;;4863191;29;20040;-80
2021/12/24 16:14:11;;;;;;;3.10;0.70;;;;;;;;;;4863173;29;20064;-80
2021/12/24 16:16:37;;;;;;;1.80;0.88;;;;;;;;;;4865064;29;20029;-80
2021/12/24 16:19:02;;;;;;;2.10;0.80;;;;;;;;;;4864853;29;20026;-79
2021/12/24 16:21:28;;;;;;;2.05;0.60;;;;;;;;;;4864262;29;20094;-80
2021/12/24 16:23:53;;;;;;;1.08;0.52;;;;;;;;;;4864444;29;20060;-80
2021/12/24 16:26:18;;;;;;;2.10;0.75;;;;;;;;;;4864585;29;20104;-80
2021/12/24 16:28:43;;;;;;;1.77;0.80;;;;;;;;;;4864769;29;20392;-80
2021/12/24 16:31:08;;;;;;;2.47;1.00;;;;;;;;;;4864920;29;20029;-81
2021/12/24 16:33:34;;;;;;;4.00;0.95;;;;;;;;;;4863203;29;20030;-80
2021/12/24 16:35:59;;;;;;;1.90;0.75;;;;;;;;;;4864199;29;20082;-81
2021/12/24 16:38:26;;;;;;;1.80;0.85;;;;;;;;;;4864143;29;20104;-80
2021/12/24 16:40:55;;;;;;;0.88;0.50;;;;;;;;;;4863873;29;20036;-81
2021/12/24 16:43:20;;;;;;;1.90;0.70;;;;;;;;;;4865341;29;20024;-80
2021/12/24 16:45:47;;;;;;;1.20;0.50;;;;;;;;;;4865645;29;20026;-80
2021/12/24 16:48:13;;;;;;;1.38;0.60;;;;;;;;;;4864346;29;20078;-81
2021/12/24 16:50:39;;;;;;;2.08;0.70;;;;;;;;;;4865892;29;20108;-80
2021/12/24 16:53:05;;;;;;;2.05;0.70;;;;;;;;;;4866917;29;20036;-80
2021/12/24 16:55:30;;;;;;;2.38;0.73;;;;;;;;;;4870581;29;20485;-79
2021/12/24 16:57:57;;;;;;;0.93;0.50;;;;;;;;;;4871095;29;20025;-80
2021/12/24 17:00:24;;;;;;;1.13;0.70;;;;;;;;;;4867040;29;20029;-80
2021/12/24 17:02:49;;;;;;;1.02;0.57;;;;;;;;;;4869805;29;20080;-80
2021/12/24 17:05:15;;;;;;;1.83;1.00;;;;;;;;;;4868769;29;20109;-80
2021/12/24 17:07:40;;;;;;;1.90;0.80;;;;;;;;;;4869011;29;20105;-80
2021/12/24 17:10:07;;;;;;;2.78;0.98;;;;;;;;;;4867546;29;20401;-81
2021/12/24 17:12:32;;;;;;;1.67;0.82;;;;;;;;;;4866720;29;20029;-81
2021/12/24 17:15:00;;;;;;;1.70;0.90;;;;;;;;;;4866504;29;20025;-80
2021/12/24 17:17:27;;;;;;;1.10;0.80;;;;;;;;;;4866349;29;20032;-80
2021/12/24 17:19:59;;;;;;;2.17;0.98;;;;;;;;;;4865300;29;20025;-81
2021/12/24 17:22:25;;;;;;;1.58;0.82;;;;;;;;;;4863581;29;20112;-80
2021/12/24 17:24:50;;;;;;;1.67;0.98;;;;;;;;;;4862939;29;20037;-81
2021/12/24 17:27:16;;;;;;;2.05;1.30;;;;;;;;;;4865542;29;20440;-81
2021/12/24 17:29:41;;;;;;;2.47;1.17;;;;;;;;;;4865024;29;20013;-80
2021/12/24 17:32:07;;;;;;;2.55;1.30;;;;;;;;;;4863977;29;20410;-81
2021/12/24 17:34:32;;;;;;;3.80;1.90;;;;;;;;;;4864560;29;20482;-80
2021/12/24 17:36:57;;;;;;;3.58;1.40;;;;;;;;;;4864053;29;20063;-80
2021/12/24 17:39:22;;;;;;;2.25;1.20;;;;;;;;;;4863146;29;20028;-80
2021/12/24 17:41:48;;;;;;;1.88;1.00;;;;;;;;;;4862872;29;20033;-81
2021/12/24 17:44:14;;;;;;;2.42;1.27;;;;;;;;;;4863327;29;20026;-80
2021/12/24 17:46:39;;;;;;;2.55;1.30;;;;;;;;;;4864019;29;20033;-80
2021/12/24 17:49:05;;;;;;;3.05;1.50;;;;;;;;;;4864283;29;20025;-80
2021/12/24 17:51:30;;;;;;;2.33;1.33;;;;;;;;;;4863998;29;20076;-80
2021/12/24 17:53:55;;;;;;;3.55;1.45;;;;;;;;;;4863626;29;20044;-81
2021/12/24 17:56:26;;;;;;;4.03;1.60;;;;;;;;;;4864991;29;20033;-80
2021/12/24 17:58:51;;;;;;;2.35;1.25;;;;;;;;;;4871127;29;20029;-80
2021/12/24 18:01:16;;;;;;;3.03;1.75;;;;;;;;;;4866319;29;20085;-79
2021/12/24 18:03:42;;;;;;;2.33;1.45;;;;;;;;;;4863721;29;20014;-80
2021/12/24 18:06:07;;;;;;;2.97;1.67;;;;;;;;;;4863106;29;20074;-80
2021/12/24 18:08:32;;;;;;;4.15;1.77;;;;;;;;;;4863080;29;20143;-80
2021/12/24 18:10:58;;;;;;;3.83;1.70;;;;;;;;;;4863268;29;20077;-80
2021/12/24 18:13:30;;;;;;;3.45;1.67;;;;;;;;;;4862159;29;20371;-81
2021/12/24 18:15:55;;;;;;;3.00;1.70;;;;;;;;;;4862649;29;20033;-81
2021/12/24 18:18:20;;;;;;;4.22;1.70;;;;;;;;;;4863559;29;20393;-81
2021/12/24 18:20:46;;;;;;;3.45;2.08;;;;;;;;;;4861984;29;20032;-80
2021/12/24 18:23:11;;;;;;;3.85;2.38;;;;;;;;;;4862846;29;20021;-80
2021/12/24 18:25:38;;;;;;;4.13;2.65;;;;;;;;;;4861077;29;20046;-80
2021/12/24 18:28:03;;;;;;;3.55;2.40;;;;;;;;;;4862404;29;20119;-80
2021/12/24 18:30:28;;;;;;;3.70;2.42;;;;;;;;;;4862811;29;20029;-80
2021/12/24 18:32:53;;;;;;;4.28;2.40;;;;;;;;;;4863378;29;20052;-81
2021/12/24 18:35:19;;;;;;;4.07;2.22;;;;;;;;;;4865390;29;20053;-81
2021/12/24 18:40:29;;;;;;;3.88;2.60;;;;;;;;;;4866691;29;20041;-80
2021/12/24 18:42:54;;;;;;;6.55;2.78;;;;;;;;;;4866433;29;20117;-81
2021/12/24 18:45:20;;;;;;;6.00;2.80;;;;;;;;;;4866790;29;20469;-80
2021/12/24 18:47:45;;;;;;;4.53;2.83;;;;;;;;;;4868368;29;20040;-81
2021/12/24 18:50:11;;;;;;;5.80;3.20;;;;;;;;;;4866313;29;20115;-81
2021/12/24 18:52:36;;;;;;;5.72;3.03;;;;;;;;;;4866005;29;20489;-79
2021/12/24 18:55:01;;;;;;;5.80;3.22;;;;;;;;;;4867472;29;20511;-80
2021/12/24 18:57:27;;;;;;;6.63;3.67;;;;;;;;;;4867817;29;20103;-81
2021/12/24 18:59:52;;;;;;;4.55;2.90;;;;;;;;;;4869582;29;20029;-80
2021/12/24 19:02:17;;;;;;;4.85;2.97;;;;;;;;;;4872733;29;20036;-82
2021/12/24 19:04:42;;;;;;;3.72;2.53;;;;;;;;;;4870312;29;20089;-79
2021/12/24 19:07:09;;;;;;;5.35;2.80;;;;;;;;;;4871517;29;20022;-80
2021/12/24 19:09:34;;;;;;;4.40;3.00;;;;;;;;;;4871344;29;20049;-80
2021/12/24 19:11:59;;;;;;;4.68;3.00;;;;;;;;;;4872877;29;20032;-81
2021/12/24 19:14:25;;;;;;;4.72;2.85;;;;;;;;;;4874252;29;20036;-81
2021/12/24 19:16:50;;;;;;;6.32;3.20;;;;;;;;;;4872177;29;20018;-80
2021/12/24 19:19:15;;;;;;;4.82;2.85;;;;;;;;;;4874282;29;20035;-80
2021/12/24 19:21:41;;;;;;;5.72;3.38;;;;;;;;;;4872793;29;20065;-81
2021/12/24 19:24:06;;;;;;;4.85;2.70;;;;;;;;;;4872394;29;20025;-81
2021/12/24 19:26:31;;;;;;;5.10;2.85;;;;;;;;;;4873265;29;20032;-80
2021/12/24 19:28:57;;;;;;;4.25;2.70;;;;;;;;;;4871860;29;20109;-81
2021/12/24 19:31:22;;;;;;;5.40;3.33;;;;;;;;;;4871467;29;20029;-81
2021/12/24 19:33:47;;;;;;;5.35;3.15;;;;;;;;;;4870493;29;20041;-81
2021/12/24 19:36:13;;;;;;;6.28;2.83;;;;;;;;;;4868896;29;20025;-81
2021/12/24 19:38:40;;;;;;;5.47;2.88;;;;;;;;;;4867581;29;20040;-80
2021/12/24 19:41:05;;;;;;;5.65;3.47;;;;;;;;;;4868304;29;20025;-81
2021/12/24 19:43:30;;;;;;;7.32;3.30;;;;;;;;;;4867210;29;20531;-80
2021/12/24 19:45:56;;;;;;;4.45;2.85;;;;;;;;;;4866125;29;20025;-81
2021/12/24 19:48:21;;;;;;;4.63;2.80;;;;;;;;;;4866532;29;20041;-80
2021/12/24 19:50:46;;;;;;;5.38;3.00;;;;;;;;;;4865266;29;20064;-81
2021/12/24 19:53:11;;;;;;;4.95;3.20;;;;;;;;;;4865291;29;20029;-81
2021/12/24 19:55:37;;;;;;;4.88;2.67;;;;;;;;;;4865448;29;20492;-80
2021/12/24 19:58:05;;;;;;;5.03;2.90;;;;;;;;;;4865369;29;20450;-80
2021/12/24 20:00:33;;;;;;;4.78;2.80;;;;;;;;;;4863649;29;20021;-81
2021/12/24 20:02:59;;;;;;;4.78;2.95;;;;;;;;;;4864685;29;20033;-81
2021/12/24 20:05:25;;;;;;;5.13;2.95;;;;;;;;;;4865733;29;20051;-80
2021/12/24 20:07:50;;;;;;;6.00;2.97;;;;;;;;;;4866577;29;20018;-80
2021/12/24 20:10:16;;;;;;;5.45;2.97;;;;;;;;;;4864851;29;20029;-80
2021/12/24 20:12:41;;;;;;;7.22;3.60;;;;;;;;;;4865446;29;20026;-81
2021/12/24 20:15:07;;;;;;;7.30;3.63;;;;;;;;;;4867813;29;20036;-82
2021/12/24 20:17:33;;;;;;;7.60;3.92;;;;;;;;;;4865737;29;20029;-81
2021/12/24 20:20:00;;;;;;;5.93;3.33;;;;;;;;;;4866685;29;20025;-80
2021/12/24 20:22:25;;;;;;;8.32;3.40;;;;;;;;;;4867090;29;20034;-81
2021/12/24 20:24:51;;;;;;;5.32;3.22;;;;;;;;;;4865095;29;20029;-80
2021/12/24 20:27:16;;;;;;;5.05;3.40;;;;;;;;;;4866565;29;20430;-80
2021/12/24 20:29:41;;;;;;;6.53;3.78;;;;;;;;;;4866352;29;20036;-80
2021/12/24 20:32:09;;;;;;;6.55;3.42;;;;;;;;;;4867293;29;20048;-81
2021/12/24 20:34:34;;;;;;;5.20;3.43;;;;;;;;;;4866834;29;20022;-81
2021/12/24 20:36:59;;;;;;;6.00;3.60;;;;;;;;;;4866330;29;20783;-81
2021/12/24 20:39:25;;;;;;;7.55;3.88;;;;;;;;;;4866717;29;20025;-80
2021/12/24 20:41:51;;;;;;;6.82;3.90;;;;;;;;;;4865975;29;20033;-81
2021/12/24 20:44:16;;;;;;;7.28;4.28;;;;;;;;;;4865805;29;20438;-81
2021/12/24 20:46:43;;;;;;;6.57;3.80;;;;;;;;;;4864984;29;20048;-80
2021/12/24 20:49:09;;;;;;;6.65;3.80;;;;;;;;;;4865719;29;20070;-81
2021/12/24 20:51:34;;;;;;;6.90;4.00;;;;;;;;;;4866488;29;20033;-82
2021/12/24 20:53:59;;;;;;;7.50;4.10;;;;;;;;;;4866620;29;20064;-81
2021/12/24 20:56:24;;;;;;;7.70;4.13;;;;;;;;;;4866118;29;20489;-81
2021/12/24 20:58:50;;;;;;;7.22;4.20;;;;;;;;;;4865216;29;20026;-81
2021/12/24 21:01:15;;;;;;;7.28;4.43;;;;;;;;;;4868351;29;20089;-81
2021/12/24 21:03:41;;;;;;;8.05;4.28;;;;;;;;;;4868892;29;20061;-81
2021/12/24 21:06:06;;;;;;;8.55;4.82;;;;;;;;;;4869027;29;20025;-80
2021/12/24 21:08:31;;;;;;;8.18;4.53;;;;;;;;;;4867296;29;20021;-81
2021/12/24 21:10:56;;;;;;;6.55;4.05;;;;;;;;;;4866197;29;20022;-80
2021/12/24 21:13:22;;;;;;;7.28;4.18;;;;;;;;;;4865331;29;20496;-81
2021/12/24 21:15:51;;;;;;;6.82;4.18;;;;;;;;;;4865264;29;20112;-81
2021/12/24 21:18:17;;;;;;;7.13;4.45;;;;;;;;;;4865276;29;20036;-80
2021/12/24 21:20:43;;;;;;;7.30;4.07;;;;;;;;;;4864540;29;20038;-81
2021/12/24 21:23:08;;;;;;;6.65;4.10;;;;;;;;;;4865608;29;20029;-80
2021/12/24 21:25:34;;;;;;;6.80;3.80;;;;;;;;;;4866426;29;20485;-81
2021/12/24 21:27:59;;;;;;;6.32;3.97;;;;;;;;;;4865575;29;20104;-80
2021/12/24 21:30:26;;;;;;;6.88;4.07;;;;;;;;;;4867107;29;20478;-81
2021/12/24 21:32:52;;;;;;;7.00;4.00;;;;;;;;;;4866568;29;20038;-81
2021/12/24 21:35:17;;;;;;;7.43;4.25;;;;;;;;;;4865280;29;20100;-81
2021/12/24 21:37:42;;;;;;;8.73;4.65;;;;;;;;;;4865804;29;20025;-80
2021/12/24 21:40:10;;;;;;;6.53;3.70;;;;;;;;;;4865841;29;20025;-80
2021/12/24 21:42:36;;;;;;;5.75;3.53;;;;;;;;;;4865833;29;20033;-81
2021/12/24 21:45:05;;;;;;;6.80;4.00;;;;;;;;;;4865544;29;20021;-81
2021/12/24 21:47:30;;;;;;;6.45;3.85;;;;;;;;;;4865366;29;20021;-80
2021/12/24 21:49:56;;;;;;;5.93;3.85;;;;;;;;;;4865354;29;20497;-81
2021/12/24 21:52:21;;;;;;;7.57;4.30;;;;;;;;;;4865549;29;20470;-81
2021/12/24 21:54:46;;;;;;;6.28;4.15;;;;;;;;;;4865123;29;20473;-81
2021/12/24 21:57:11;;;;;;;9.75;4.88;;;;;;;;;;4864603;29;20018;-81
2021/12/24 21:59:36;;;;;;;9.60;6.93;;;;;;;;;;4864776;29;20489;-81
2021/12/24 22:02:02;;;;;;;7.95;4.80;;;;;;;;;;4864690;29;20050;-80
2021/12/24 22:04:41;;;;;;;10.05;5.00;;;;;;;;;;4864733;29;20028;-81
2021/12/24 22:09:49;;;;;;;8.52;5.22;;;;;;;;;;4871013;29;20032;-79
2021/12/24 22:12:15;;;;;;;8.40;4.88;;;;;;;;;;4867389;29;20018;-80
2021/12/24 22:14:40;;;;;;;8.82;5.60;;;;;;;;;;4868395;29;20036;-81
2021/12/24 22:17:06;;;;;;;20.98;11.85;;;;;;;;;;4867779;29;20028;-81
2021/12/24 22:19:31;;;;;;;8.57;5.32;;;;;;;;;;4868395;29;20469;-81
2021/12/24 22:21:59;;;;;;;8.52;5.25;;;;;;;;;;4868185;29;20025;-80
2021/12/24 22:24:26;;;;;;;8.02;4.90;;;;;;;;;;4951355;23;20055;-83
2021/12/24 22:26:51;;;;;;;8.65;5.10;;;;;;;;;;4899329;29;20040;-83
2021/12/24 22:29:19;;;;;;;8.65;5.40;;;;;;;;;;4898251;29;20096;-82
2021/12/24 22:31:48;;;;;;;8.95;5.72;;;;;;;;;;4899874;29;20041;-83
2021/12/24 22:34:14;;;;;;;8.73;5.38;;;;;;;;;;4899701;29;20062;-83
2021/12/24 22:36:39;;;;;;;10.70;5.43;;;;;;;;;;4901283;29;20017;-82
2021/12/24 22:39:14;;;;;;;8.50;5.43;;;;;;;;;;4898199;29;20022;-83
2021/12/24 22:41:39;;;;;;;9.30;5.30;;;;;;;;;;4896722;29;20029;-82
2021/12/24 22:44:05;;;;;;;9.80;5.57;;;;;;;;;;4897195;29;20065;-82
2021/12/24 22:46:30;;;;;;;9.95;5.28;;;;;;;;;;4895456;29;20017;-83
2021/12/24 22:48:56;;;;;;;9.85;5.00;;;;;;;;;;4897925;29;20017;-83
2021/12/24 22:51:24;;;;;;;7.00;4.43;;;;;;;;;;4897849;29;20065;-82
2021/12/24 22:53:50;;;;;;;7.03;3.67;;;;;;;;;;4898368;29;20031;-83
2021/12/24 22:56:15;;;;;;;6.35;3.30;;;;;;;;;;4897172;29;20057;-82
2021/12/24 22:58:40;;;;;;;5.85;3.10;;;;;;;;;;4897470;29;20428;-82
2021/12/24 23:01:07;;;;;;;6.07;3.22;;;;;;;;;;4897071;29;20086;-82
2021/12/24 23:03:33;;;;;;;4.75;2.75;;;;;;;;;;4897060;29;20016;-82
2021/12/24 23:05:59;;;;;;;4.72;2.85;;;;;;;;;;4898451;29;20017;-81
2021/12/24 23:08:26;;;;;;;5.35;2.97;;;;;;;;;;4896174;29;20050;-81
2021/12/24 23:10:54;;;;;;;5.57;2.63;;;;;;;;;;4892647;29;20078;-81
2021/12/24 23:13:23;;;;;;;4.97;2.58;;;;;;;;;;4895253;29;20021;-82
2021/12/24 23:15:50;;;;;;;3.97;2.17;;;;;;;;;;4896739;29;20021;-83
2021/12/24 23:18:21;;;;;;;5.07;2.63;;;;;;;;;;4896971;29;20029;-82
2021/12/24 23:20:48;;;;;;;6.60;2.60;;;;;;;;;;4896664;29;20021;-82
2021/12/24 23:23:13;;;;;;;6.20;2.28;;;;;;;;;;4894841;29;20441;-82
2021/12/24 23:25:39;;;;;;;4.10;2.17;;;;;;;;;;4896768;29;20029;-82
2021/12/24 23:28:04;;;;;;;5.68;2.40;;;;;;;;;;4895507;29;20089;-82
2021/12/24 23:30:30;;;;;;;4.07;2.03;;;;;;;;;;4895199;29;20058;-82
2021/12/24 23:32:55;;;;;;;5.13;1.88;;;;;;;;;;4896211;29;20085;-83
2021/12/24 23:35:21;;;;;;;4.70;2.22;;;;;;;;;;4896570;29;20049;-82
2021/12/24 23:37:46;;;;;;;3.85;1.95;;;;;;;;;;4896652;29;20093;-82
2021/12/24 23:40:12;;;;;;;4.25;2.10;;;;;;;;;;4895900;29;20036;-82
2021/12/24 23:42:40;;;;;;;3.30;1.77;;;;;;;;;;4895788;29;20032;-82
2021/12/24 23:45:21;;;;;;;3.80;1.90;;;;;;;;;;4895345;29;20028;-82
2021/12/24 23:47:47;;;;;;;3.63;1.70;;;;;;;;;;4897233;29;20028;-82
2021/12/24 23:50:12;;;;;;;4.32;2.20;;;;;;;;;;4895242;29;20036;-83
2021/12/24 23:52:43;;;;;;;3.90;1.58;;;;;;;;;;4893455;29;20029;-82
2021/12/24 23:55:09;;;;;;;2.47;1.33;;;;;;;;;;4895405;29;20095;-83
2021/12/24 23:57:34;;;;;;;3.50;1.65;;;;;;;;;;4896545;29;20028;-81
